sensor_id;sensor_type;location;lat;lon;timestamp;temperature;humidity
42261;DHT22;27926;48.062;7.474;2023-04-06T00:01:51;0.80;99.90
42261;DHT22;27926;48.062;7.474;2023-04-06T00:04:16;0.80;99.90
42261;DHT22;27926;48.062;7.474;2023-04-06T00:06:40;0.80;99.90
42261;DHT22;27926;48.062;7.474;2023-04-06T00:09:05;0.80;99.90
42261;DHT22;27926;48.062;7.474;2023-04-06T00:11:30;0.80;99.90
42261;DHT22;27926;48.062;7.474;2023-04-06T00:13:54;1.70;99.90
42261;DHT22;27926;48.062;7.474;2023-04-06T00:16:19;0.70;99.90
42261;DHT22;27926;48.062;7.474;2023-04-06T00:18:44;1.50;99.90
42261;DHT22;27926;48.062;7.474;2023-04-06T00:21:11;0.70;99.90
42261;DHT22;27926;48.062;7.474;2023-04-06T00:23:37;0.70;99.90
42261;DHT22;27926;48.062;7.474;2023-04-06T00:26:01;0.70;99.90
42261;DHT22;27926;48.062;7.474;2023-04-06T00:28:26;0.70;99.90
42261;DHT22;27926;48.062;7.474;2023-04-06T00:30:54;0.60;99.90
42261;DHT22;27926;48.062;7.474;2023-04-06T00:33:19;0.50;99.90
42261;DHT22;27926;48.062;7.474;2023-04-06T00:35:44;0.50;99.90
42261;DHT22;27926;48.062;7.474;2023-04-06T00:38:09;0.50;99.90
42261;DHT22;27926;48.062;7.474;2023-04-06T00:40:34;0.40;99.90
42261;DHT22;27926;48.062;7.474;2023-04-06T00:42:59;0.40;99.90
42261;DHT22;27926;48.062;7.474;2023-04-06T00:45:24;0.30;99.90
42261;DHT22;27926;48.062;7.474;2023-04-06T00:47:48;0.20;99.90
42261;DHT22;27926;48.062;7.474;2023-04-06T00:50:13;0.10;99.90
42261;DHT22;27926;48.062;7.474;2023-04-06T00:52:38;0.10;99.90
42261;DHT22;27926;48.062;7.474;2023-04-06T00:55:04;0.60;99.90
42261;DHT22;27926;48.062;7.474;2023-04-06T00:57:29;0.10;99.90
42261;DHT22;27926;48.062;7.474;2023-04-06T00:59:54;0.10;99.90
42261;DHT22;27926;48.062;7.474;2023-04-06T01:02:18;0.10;99.90
42261;DHT22;27926;48.062;7.474;2023-04-06T01:04:43;0.10;99.90
42261;DHT22;27926;48.062;7.474;2023-04-06T01:07:08;0.30;99.90
42261;DHT22;27926;48.062;7.474;2023-04-06T01:09:33;0.20;99.90
42261;DHT22;27926;48.062;7.474;2023-04-06T01:11:58;0.20;99.90
42261;DHT22;27926;48.062;7.474;2023-04-06T01:14:23;0.10;99.90
42261;DHT22;27926;48.062;7.474;2023-04-06T01:16:48;0.10;99.90
42261;DHT22;27926;48.062;7.474;2023-04-06T01:19:13;0.10;99.90
42261;DHT22;27926;48.062;7.474;2023-04-06T01:21:39;0.00;99.90
42261;DHT22;27926;48.062;7.474;2023-04-06T01:24:04;0.00;99.90
42261;DHT22;27926;48.062;7.474;2023-04-06T01:26:29;0.00;99.90
42261;DHT22;27926;48.062;7.474;2023-04-06T01:28:54;-0.10;99.90
42261;DHT22;27926;48.062;7.474;2023-04-06T01:31:19;1.10;99.90
42261;DHT22;27926;48.062;7.474;2023-04-06T01:33:44;-0.10;99.90
42261;DHT22;27926;48.062;7.474;2023-04-06T01:36:09;-0.20;99.90
42261;DHT22;27926;48.062;7.474;2023-04-06T01:38:34;-0.20;99.90
42261;DHT22;27926;48.062;7.474;2023-04-06T01:40:59;-0.20;99.90
42261;DHT22;27926;48.062;7.474;2023-04-06T01:43:23;-0.20;99.90
42261;DHT22;27926;48.062;7.474;2023-04-06T01:45:49;-0.20;99.90
42261;DHT22;27926;48.062;7.474;2023-04-06T01:48:13;-0.20;99.90
42261;DHT22;27926;48.062;7.474;2023-04-06T01:50:38;-0.20;99.90
42261;DHT22;27926;48.062;7.474;2023-04-06T01:53:03;-0.20;99.90
42261;DHT22;27926;48.062;7.474;2023-04-06T01:55:27;-0.20;99.90
42261;DHT22;27926;48.062;7.474;2023-04-06T01:57:52;-0.20;99.90
42261;DHT22;27926;48.062;7.474;2023-04-06T02:00:17;-0.20;99.90
42261;DHT22;27926;48.062;7.474;2023-04-06T02:02:41;-0.20;99.90
42261;DHT22;27926;48.062;7.474;2023-04-06T02:05:06;-0.20;99.90
42261;DHT22;27926;48.062;7.474;2023-04-06T02:07:31;-0.20;99.90
42261;DHT22;27926;48.062;7.474;2023-04-06T02:09:56;-0.30;99.90
42261;DHT22;27926;48.062;7.474;2023-04-06T02:12:20;-0.30;99.90
42261;DHT22;27926;48.062;7.474;2023-04-06T02:14:45;-0.30;99.90
42261;DHT22;27926;48.062;7.474;2023-04-06T02:17:09;-0.30;99.90
42261;DHT22;27926;48.062;7.474;2023-04-06T02:19:34;-0.30;99.90
42261;DHT22;27926;48.062;7.474;2023-04-06T02:21:59;-0.20;99.90
42261;DHT22;27926;48.062;7.474;2023-04-06T02:24:23;-0.10;99.90
42261;DHT22;27926;48.062;7.474;2023-04-06T02:26:48;-0.20;99.90
42261;DHT22;27926;48.062;7.474;2023-04-06T02:29:12;-0.20;99.90
42261;DHT22;27926;48.062;7.474;2023-04-06T02:31:37;-0.30;99.90
42261;DHT22;27926;48.062;7.474;2023-04-06T02:34:01;-0.20;99.90
42261;DHT22;27926;48.062;7.474;2023-04-06T02:36:26;-0.20;99.90
42261;DHT22;27926;48.062;7.474;2023-04-06T02:38:51;-0.20;99.90
42261;DHT22;27926;48.062;7.474;2023-04-06T02:41:16;0.10;99.90
42261;DHT22;27926;48.062;7.474;2023-04-06T02:43:40;-0.30;99.90
42261;DHT22;27926;48.062;7.474;2023-04-06T02:46:05;-0.30;99.90
42261;DHT22;27926;48.062;7.474;2023-04-06T02:48:29;-0.40;99.90
42261;DHT22;27926;48.062;7.474;2023-04-06T02:50:54;-0.40;99.90
42261;DHT22;27926;48.062;7.474;2023-04-06T02:53:19;-0.50;99.90
42261;DHT22;27926;48.062;7.474;2023-04-06T02:55:43;-0.60;99.90
42261;DHT22;27926;48.062;7.474;2023-04-06T02:58:08;-0.70;99.90
42261;DHT22;27926;48.062;7.474;2023-04-06T03:00:32;-0.70;99.90
42261;DHT22;27926;48.062;7.474;2023-04-06T03:02:57;-0.80;99.90
42261;DHT22;27926;48.062;7.474;2023-04-06T03:05:21;-0.80;99.90
42261;DHT22;27926;48.062;7.474;2023-04-06T03:07:46;-0.90;99.90
42261;DHT22;27926;48.062;7.474;2023-04-06T03:10:11;-0.80;99.90
42261;DHT22;27926;48.062;7.474;2023-04-06T03:12:36;-0.80;99.90
42261;DHT22;27926;48.062;7.474;2023-04-06T03:15:00;-0.80;99.90
42261;DHT22;27926;48.062;7.474;2023-04-06T03:17:25;-0.80;99.90
42261;DHT22;27926;48.062;7.474;2023-04-06T03:19:49;-0.80;99.90
42261;DHT22;27926;48.062;7.474;2023-04-06T03:22:14;-0.90;99.90
42261;DHT22;27926;48.062;7.474;2023-04-06T03:24:38;-0.80;99.90
42261;DHT22;27926;48.062;7.474;2023-04-06T03:27:03;-0.90;99.90
42261;DHT22;27926;48.062;7.474;2023-04-06T03:29:28;-0.90;99.90
42261;DHT22;27926;48.062;7.474;2023-04-06T03:31:52;-0.40;99.90
42261;DHT22;27926;48.062;7.474;2023-04-06T03:34:17;-0.90;99.90
42261;DHT22;27926;48.062;7.474;2023-04-06T03:36:41;-0.90;99.90
42261;DHT22;27926;48.062;7.474;2023-04-06T03:39:06;-1.00;99.90
42261;DHT22;27926;48.062;7.474;2023-04-06T03:41:31;-1.00;99.90
42261;DHT22;27926;48.062;7.474;2023-04-06T03:43:55;-1.00;99.90
42261;DHT22;27926;48.062;7.474;2023-04-06T03:46:20;-1.10;99.90
42261;DHT22;27926;48.062;7.474;2023-04-06T03:48:47;-1.10;99.90
42261;DHT22;27926;48.062;7.474;2023-04-06T03:51:12;-1.10;99.90
42261;DHT22;27926;48.062;7.474;2023-04-06T03:53:37;-0.50;99.90
42261;DHT22;27926;48.062;7.474;2023-04-06T03:56:02;-1.10;99.90
42261;DHT22;27926;48.062;7.474;2023-04-06T03:58:26;-1.10;99.90
42261;DHT22;27926;48.062;7.474;2023-04-06T04:00:51;-1.10;99.90
42261;DHT22;27926;48.062;7.474;2023-04-06T04:03:15;-1.10;99.90
42261;DHT22;27926;48.062;7.474;2023-04-06T04:05:40;-1.10;99.90
42261;DHT22;27926;48.062;7.474;2023-04-06T04:08:05;-1.10;99.90
42261;DHT22;27926;48.062;7.474;2023-04-06T04:10:30;-1.10;99.90
42261;DHT22;27926;48.062;7.474;2023-04-06T04:12:55;-1.20;99.90
42261;DHT22;27926;48.062;7.474;2023-04-06T04:15:23;-1.20;99.90
42261;DHT22;27926;48.062;7.474;2023-04-06T04:17:47;-1.20;99.90
42261;DHT22;27926;48.062;7.474;2023-04-06T04:20:13;-1.20;99.90
42261;DHT22;27926;48.062;7.474;2023-04-06T04:22:38;-1.20;99.90
42261;DHT22;27926;48.062;7.474;2023-04-06T04:25:02;-1.20;99.90
42261;DHT22;27926;48.062;7.474;2023-04-06T04:27:27;-1.20;99.90
42261;DHT22;27926;48.062;7.474;2023-04-06T04:29:52;-1.20;99.90
42261;DHT22;27926;48.062;7.474;2023-04-06T04:32:16;-1.30;99.90
42261;DHT22;27926;48.062;7.474;2023-04-06T04:34:41;-1.30;99.90
42261;DHT22;27926;48.062;7.474;2023-04-06T04:37:06;-1.30;99.90
42261;DHT22;27926;48.062;7.474;2023-04-06T04:39:31;-1.30;99.90
42261;DHT22;27926;48.062;7.474;2023-04-06T04:41:55;-1.30;99.90
42261;DHT22;27926;48.062;7.474;2023-04-06T04:44:20;-1.30;99.90
42261;DHT22;27926;48.062;7.474;2023-04-06T04:46:44;-1.30;99.90
42261;DHT22;27926;48.062;7.474;2023-04-06T04:49:09;-1.30;99.90
42261;DHT22;27926;48.062;7.474;2023-04-06T04:51:34;-1.30;99.90
42261;DHT22;27926;48.062;7.474;2023-04-06T04:53:59;-1.30;99.90
42261;DHT22;27926;48.062;7.474;2023-04-06T04:56:23;-1.30;99.90
42261;DHT22;27926;48.062;7.474;2023-04-06T04:58:48;-1.30;99.90
42261;DHT22;27926;48.062;7.474;2023-04-06T05:01:13;-1.20;99.90
42261;DHT22;27926;48.062;7.474;2023-04-06T05:03:37;-1.20;99.90
42261;DHT22;27926;48.062;7.474;2023-04-06T05:06:04;-1.20;99.90
42261;DHT22;27926;48.062;7.474;2023-04-06T05:08:29;-1.10;99.90
42261;DHT22;27926;48.062;7.474;2023-04-06T05:10:53;-1.20;99.90
42261;DHT22;27926;48.062;7.474;2023-04-06T05:13:18;-1.10;99.90
42261;DHT22;27926;48.062;7.474;2023-04-06T05:15:42;-1.10;99.90
42261;DHT22;27926;48.062;7.474;2023-04-06T05:18:08;-1.00;99.90
42261;DHT22;27926;48.062;7.474;2023-04-06T05:20:33;-1.00;99.90
42261;DHT22;27926;48.062;7.474;2023-04-06T05:22:57;-1.00;99.90
42261;DHT22;27926;48.062;7.474;2023-04-06T05:25:22;-1.00;99.90
42261;DHT22;27926;48.062;7.474;2023-04-06T05:27:47;-0.90;99.90
42261;DHT22;27926;48.062;7.474;2023-04-06T05:30:12;-0.80;99.90
42261;DHT22;27926;48.062;7.474;2023-04-06T05:32:36;-0.80;99.90
42261;DHT22;27926;48.062;7.474;2023-04-06T05:35:01;-0.60;99.90
42261;DHT22;27926;48.062;7.474;2023-04-06T05:37:29;-0.50;99.90
42261;DHT22;27926;48.062;7.474;2023-04-06T05:39:54;-0.40;99.90
42261;DHT22;27926;48.062;7.474;2023-04-06T05:42:18;-0.30;99.90
42261;DHT22;27926;48.062;7.474;2023-04-06T05:44:44;-0.30;99.90
42261;DHT22;27926;48.062;7.474;2023-04-06T05:47:09;-0.20;99.90
42261;DHT22;27926;48.062;7.474;2023-04-06T05:49:33;-0.10;99.90
42261;DHT22;27926;48.062;7.474;2023-04-06T05:51:59;0.00;99.90
42261;DHT22;27926;48.062;7.474;2023-04-06T05:54:23;0.00;99.90
42261;DHT22;27926;48.062;7.474;2023-04-06T05:56:48;0.20;99.90
42261;DHT22;27926;48.062;7.474;2023-04-06T05:59:14;1.70;99.90
42261;DHT22;27926;48.062;7.474;2023-04-06T06:01:39;0.60;99.90
42261;DHT22;27926;48.062;7.474;2023-04-06T06:04:04;0.70;99.90
42261;DHT22;27926;48.062;7.474;2023-04-06T06:06:29;1.80;99.90
42261;DHT22;27926;48.062;7.474;2023-04-06T06:08:54;0.90;99.90
42261;DHT22;27926;48.062;7.474;2023-04-06T06:11:19;0.90;99.90
42261;DHT22;27926;48.062;7.474;2023-04-06T06:13:44;1.00;99.90
42261;DHT22;27926;48.062;7.474;2023-04-06T06:16:09;0.90;99.90
42261;DHT22;27926;48.062;7.474;2023-04-06T06:18:33;1.00;99.90
42261;DHT22;27926;48.062;7.474;2023-04-06T06:20:58;1.10;99.90
42261;DHT22;27926;48.062;7.474;2023-04-06T06:23:23;1.20;99.90
42261;DHT22;27926;48.062;7.474;2023-04-06T06:25:47;1.50;99.90
42261;DHT22;27926;48.062;7.474;2023-04-06T06:28:12;1.70;99.90
42261;DHT22;27926;48.062;7.474;2023-04-06T06:30:37;2.00;99.90
42261;DHT22;27926;48.062;7.474;2023-04-06T06:33:02;2.50;99.90
42261;DHT22;27926;48.062;7.474;2023-04-06T06:35:27;3.10;99.90
42261;DHT22;27926;48.062;7.474;2023-04-06T06:37:52;4.40;99.90
42261;DHT22;27926;48.062;7.474;2023-04-06T06:40:16;4.80;99.90
42261;DHT22;27926;48.062;7.474;2023-04-06T06:42:42;5.10;99.90
42261;DHT22;27926;48.062;7.474;2023-04-06T06:45:08;5.60;99.90
42261;DHT22;27926;48.062;7.474;2023-04-06T06:47:33;5.90;99.90
42261;DHT22;27926;48.062;7.474;2023-04-06T06:49:58;6.10;99.90
42261;DHT22;27926;48.062;7.474;2023-04-06T06:52:22;6.30;99.90
42261;DHT22;27926;48.062;7.474;2023-04-06T06:54:48;6.40;99.90
42261;DHT22;27926;48.062;7.474;2023-04-06T06:57:12;6.50;99.90
42261;DHT22;27926;48.062;7.474;2023-04-06T06:59:37;6.40;99.90
42261;DHT22;27926;48.062;7.474;2023-04-06T07:02:02;6.30;99.90
42261;DHT22;27926;48.062;7.474;2023-04-06T07:04:26;6.30;99.90
42261;DHT22;27926;48.062;7.474;2023-04-06T07:06:51;6.40;99.90
42261;DHT22;27926;48.062;7.474;2023-04-06T07:09:16;6.20;99.90
42261;DHT22;27926;48.062;7.474;2023-04-06T07:11:41;6.20;99.90
42261;DHT22;27926;48.062;7.474;2023-04-06T07:14:09;6.40;99.90
42261;DHT22;27926;48.062;7.474;2023-04-06T07:16:34;6.50;99.90
42261;DHT22;27926;48.062;7.474;2023-04-06T07:18:58;6.50;99.90
42261;DHT22;27926;48.062;7.474;2023-04-06T07:21:23;6.70;99.90
42261;DHT22;27926;48.062;7.474;2023-04-06T07:23:47;6.80;99.90
42261;DHT22;27926;48.062;7.474;2023-04-06T07:26:12;7.00;99.90
42261;DHT22;27926;48.062;7.474;2023-04-06T07:28:37;7.20;99.90
42261;DHT22;27926;48.062;7.474;2023-04-06T07:31:01;7.60;99.60
42261;DHT22;27926;48.062;7.474;2023-04-06T07:33:26;7.50;99.40
42261;DHT22;27926;48.062;7.474;2023-04-06T07:35:54;7.80;99.30
42261;DHT22;27926;48.062;7.474;2023-04-06T07:38:18;7.80;99.00
42261;DHT22;27926;48.062;7.474;2023-04-06T07:40:43;7.80;98.40
42261;DHT22;27926;48.062;7.474;2023-04-06T07:43:08;7.80;98.50
42261;DHT22;27926;48.062;7.474;2023-04-06T07:45:32;7.80;98.80
42261;DHT22;27926;48.062;7.474;2023-04-06T07:47:57;8.00;98.30
42261;DHT22;27926;48.062;7.474;2023-04-06T07:50:21;8.10;97.60
42261;DHT22;27926;48.062;7.474;2023-04-06T07:52:46;8.30;98.00
42261;DHT22;27926;48.062;7.474;2023-04-06T07:55:11;8.30;97.50
42261;DHT22;27926;48.062;7.474;2023-04-06T07:57:35;8.20;97.10
42261;DHT22;27926;48.062;7.474;2023-04-06T08:00:00;8.40;97.10
42261;DHT22;27926;48.062;7.474;2023-04-06T08:02:25;8.60;97.40
42261;DHT22;27926;48.062;7.474;2023-04-06T08:04:49;8.90;96.70
42261;DHT22;27926;48.062;7.474;2023-04-06T08:07:14;9.20;95.70
42261;DHT22;27926;48.062;7.474;2023-04-06T08:09:39;9.40;95.20
42261;DHT22;27926;48.062;7.474;2023-04-06T08:12:03;9.40;95.00
42261;DHT22;27926;48.062;7.474;2023-04-06T08:14:28;9.50;95.00
42261;DHT22;27926;48.062;7.474;2023-04-06T08:16:53;9.60;95.00
42261;DHT22;27926;48.062;7.474;2023-04-06T08:19:17;9.70;95.10
42261;DHT22;27926;48.062;7.474;2023-04-06T08:21:43;9.90;94.50
42261;DHT22;27926;48.062;7.474;2023-04-06T08:24:08;10.10;94.00
42261;DHT22;27926;48.062;7.474;2023-04-06T08:26:32;10.20;93.40
42261;DHT22;27926;48.062;7.474;2023-04-06T08:28:57;10.20;93.90
42261;DHT22;27926;48.062;7.474;2023-04-06T08:31:22;10.20;93.80
42261;DHT22;27926;48.062;7.474;2023-04-06T08:33:46;10.40;93.50
42261;DHT22;27926;48.062;7.474;2023-04-06T08:36:14;10.40;92.90
42261;DHT22;27926;48.062;7.474;2023-04-06T08:38:40;10.50;92.60
42261;DHT22;27926;48.062;7.474;2023-04-06T08:41:15;10.50;93.10
42261;DHT22;27926;48.062;7.474;2023-04-06T08:43:51;10.50;93.50
42261;DHT22;27926;48.062;7.474;2023-04-06T08:46:17;10.60;93.00
42261;DHT22;27926;48.062;7.474;2023-04-06T08:48:43;10.70;93.00
42261;DHT22;27926;48.062;7.474;2023-04-06T08:51:08;10.90;92.60
42261;DHT22;27926;48.062;7.474;2023-04-06T08:53:33;11.00;92.40
42261;DHT22;27926;48.062;7.474;2023-04-06T08:55:58;11.10;92.60
42261;DHT22;27926;48.062;7.474;2023-04-06T08:58:24;11.20;91.80
42261;DHT22;27926;48.062;7.474;2023-04-06T09:00:51;11.20;91.90
42261;DHT22;27926;48.062;7.474;2023-04-06T09:03:15;11.30;91.30
42261;DHT22;27926;48.062;7.474;2023-04-06T09:05:41;11.40;91.70
42261;DHT22;27926;48.062;7.474;2023-04-06T09:08:06;11.50;91.40
42261;DHT22;27926;48.062;7.474;2023-04-06T09:10:32;11.70;91.40
42261;DHT22;27926;48.062;7.474;2023-04-06T09:13:04;11.70;91.00
42261;DHT22;27926;48.062;7.474;2023-04-06T09:15:29;11.80;91.10
42261;DHT22;27926;48.062;7.474;2023-04-06T09:17:53;11.80;90.70
42261;DHT22;27926;48.062;7.474;2023-04-06T09:20:23;11.80;91.00
42261;DHT22;27926;48.062;7.474;2023-04-06T09:22:50;11.90;90.40
42261;DHT22;27926;48.062;7.474;2023-04-06T09:25:21;12.10;90.70
42261;DHT22;27926;48.062;7.474;2023-04-06T09:27:47;12.40;90.20
42261;DHT22;27926;48.062;7.474;2023-04-06T09:30:12;12.40;88.80
42261;DHT22;27926;48.062;7.474;2023-04-06T09:32:54;12.40;87.60
42261;DHT22;27926;48.062;7.474;2023-04-06T09:35:20;12.40;88.20
42261;DHT22;27926;48.062;7.474;2023-04-06T09:37:50;12.40;87.60
42261;DHT22;27926;48.062;7.474;2023-04-06T09:40:15;12.50;87.50
42261;DHT22;27926;48.062;7.474;2023-04-06T09:42:41;12.60;87.10
42261;DHT22;27926;48.062;7.474;2023-04-06T09:45:07;12.70;86.10
42261;DHT22;27926;48.062;7.474;2023-04-06T09:47:32;12.80;84.80
42261;DHT22;27926;48.062;7.474;2023-04-06T09:49:58;12.90;84.30
42261;DHT22;27926;48.062;7.474;2023-04-06T09:52:47;13.10;85.40
42261;DHT22;27926;48.062;7.474;2023-04-06T09:58:13;13.60;82.30
42261;DHT22;27926;48.062;7.474;2023-04-06T10:01:35;13.90;80.80
42261;DHT22;27926;48.062;7.474;2023-04-06T10:06:24;14.20;81.10
42261;DHT22;27926;48.062;7.474;2023-04-06T10:08:51;14.40;79.20
42261;DHT22;27926;48.062;7.474;2023-04-06T10:11:18;14.40;79.80
42261;DHT22;27926;48.062;7.474;2023-04-06T10:13:45;14.60;79.20
42261;DHT22;27926;48.062;7.474;2023-04-06T10:16:13;14.60;79.70
42261;DHT22;27926;48.062;7.474;2023-04-06T10:18:39;14.70;77.90
42261;DHT22;27926;48.062;7.474;2023-04-06T10:21:09;14.50;77.00
42261;DHT22;27926;48.062;7.474;2023-04-06T10:23:36;14.40;77.10
42261;DHT22;27926;48.062;7.474;2023-04-06T10:26:02;14.60;78.80
42261;DHT22;27926;48.062;7.474;2023-04-06T10:28:36;14.40;76.40
42261;DHT22;27926;48.062;7.474;2023-04-06T10:31:01;14.20;76.60
42261;DHT22;27926;48.062;7.474;2023-04-06T10:33:28;14.20;76.20
42261;DHT22;27926;48.062;7.474;2023-04-06T10:35:53;14.30;77.30
42261;DHT22;27926;48.062;7.474;2023-04-06T10:38:19;14.50;77.20
42261;DHT22;27926;48.062;7.474;2023-04-06T10:40:46;14.70;76.00
42261;DHT22;27926;48.062;7.474;2023-04-06T10:43:21;14.80;72.30
42261;DHT22;27926;48.062;7.474;2023-04-06T10:45:55;14.80;75.40
42261;DHT22;27926;48.062;7.474;2023-04-06T10:48:20;14.90;73.80
42261;DHT22;27926;48.062;7.474;2023-04-06T10:50:51;14.80;74.20
42261;DHT22;27926;48.062;7.474;2023-04-06T10:53:24;14.90;73.80
42261;DHT22;27926;48.062;7.474;2023-04-06T10:55:53;15.00;73.40
42261;DHT22;27926;48.062;7.474;2023-04-06T10:58:19;15.00;72.70
42261;DHT22;27926;48.062;7.474;2023-04-06T11:00:48;15.00;74.80
42261;DHT22;27926;48.062;7.474;2023-04-06T11:03:13;15.10;73.90
42261;DHT22;27926;48.062;7.474;2023-04-06T11:05:38;15.20;74.10
42261;DHT22;27926;48.062;7.474;2023-04-06T11:08:02;15.20;72.00
42261;DHT22;27926;48.062;7.474;2023-04-06T11:10:27;15.10;71.80
42261;DHT22;27926;48.062;7.474;2023-04-06T11:12:56;15.20;70.70
42261;DHT22;27926;48.062;7.474;2023-04-06T11:15:21;15.20;71.90
42261;DHT22;27926;48.062;7.474;2023-04-06T11:17:45;15.10;73.10
42261;DHT22;27926;48.062;7.474;2023-04-06T11:20:11;15.10;71.80
42261;DHT22;27926;48.062;7.474;2023-04-06T11:22:36;15.00;72.60
42261;DHT22;27926;48.062;7.474;2023-04-06T11:25:07;15.10;70.30
42261;DHT22;27926;48.062;7.474;2023-04-06T11:27:33;15.20;72.40
42261;DHT22;27926;48.062;7.474;2023-04-06T11:29:59;15.40;72.50
42261;DHT22;27926;48.062;7.474;2023-04-06T11:32:24;15.50;72.60
42261;DHT22;27926;48.062;7.474;2023-04-06T11:34:52;15.50;71.90
42261;DHT22;27926;48.062;7.474;2023-04-06T11:37:16;15.60;68.10
42261;DHT22;27926;48.062;7.474;2023-04-06T11:39:47;15.50;68.70
42261;DHT22;27926;48.062;7.474;2023-04-06T11:42:21;15.50;71.60
42261;DHT22;27926;48.062;7.474;2023-04-06T11:44:49;15.60;70.90
42261;DHT22;27926;48.062;7.474;2023-04-06T11:47:13;15.50;70.00
42261;DHT22;27926;48.062;7.474;2023-04-06T11:49:40;15.40;72.00
42261;DHT22;27926;48.062;7.474;2023-04-06T11:52:19;15.30;68.00
42261;DHT22;27926;48.062;7.474;2023-04-06T11:54:44;15.50;70.50
42261;DHT22;27926;48.062;7.474;2023-04-06T11:57:09;15.70;70.00
42261;DHT22;27926;48.062;7.474;2023-04-06T11:59:34;15.70;70.10
42261;DHT22;27926;48.062;7.474;2023-04-06T12:02:00;15.60;69.90
42261;DHT22;27926;48.062;7.474;2023-04-06T12:04:25;15.70;69.70
42261;DHT22;27926;48.062;7.474;2023-04-06T12:06:50;15.60;70.60
42261;DHT22;27926;48.062;7.474;2023-04-06T12:09:16;15.50;67.90
42261;DHT22;27926;48.062;7.474;2023-04-06T12:11:41;15.50;70.40
42261;DHT22;27926;48.062;7.474;2023-04-06T12:14:06;15.60;69.10
42261;DHT22;27926;48.062;7.474;2023-04-06T12:16:31;15.80;70.80
42261;DHT22;27926;48.062;7.474;2023-04-06T12:18:56;16.00;69.70
42261;DHT22;27926;48.062;7.474;2023-04-06T12:21:21;16.20;71.50
42261;DHT22;27926;48.062;7.474;2023-04-06T12:23:45;16.40;71.60
42261;DHT22;27926;48.062;7.474;2023-04-06T12:26:10;16.60;71.20
42261;DHT22;27926;48.062;7.474;2023-04-06T12:28:35;16.50;69.40
42261;DHT22;27926;48.062;7.474;2023-04-06T12:30:59;16.40;68.80
42261;DHT22;27926;48.062;7.474;2023-04-06T12:33:24;16.20;69.50
42261;DHT22;27926;48.062;7.474;2023-04-06T12:35:49;16.20;70.50
42261;DHT22;27926;48.062;7.474;2023-04-06T12:38:13;16.10;71.80
42261;DHT22;27926;48.062;7.474;2023-04-06T12:40:38;16.20;70.70
42261;DHT22;27926;48.062;7.474;2023-04-06T12:43:04;16.20;70.50
42261;DHT22;27926;48.062;7.474;2023-04-06T12:45:30;16.10;68.70
42261;DHT22;27926;48.062;7.474;2023-04-06T12:47:55;15.90;68.30
42261;DHT22;27926;48.062;7.474;2023-04-06T12:50:20;15.90;68.50
42261;DHT22;27926;48.062;7.474;2023-04-06T12:52:44;16.10;69.80
42261;DHT22;27926;48.062;7.474;2023-04-06T12:55:12;16.30;70.90
42261;DHT22;27926;48.062;7.474;2023-04-06T12:57:37;16.60;71.40
42261;DHT22;27926;48.062;7.474;2023-04-06T13:00:01;16.70;71.90
42261;DHT22;27926;48.062;7.474;2023-04-06T13:02:26;16.70;70.50
42261;DHT22;27926;48.062;7.474;2023-04-06T13:04:51;16.80;68.80
42261;DHT22;27926;48.062;7.474;2023-04-06T13:07:16;16.40;67.60
42261;DHT22;27926;48.062;7.474;2023-04-06T13:09:41;16.20;69.80
42261;DHT22;27926;48.062;7.474;2023-04-06T13:12:05;16.00;69.60
42261;DHT22;27926;48.062;7.474;2023-04-06T13:14:30;15.70;68.90
42261;DHT22;27926;48.062;7.474;2023-04-06T13:16:55;17.00;69.60
42261;DHT22;27926;48.062;7.474;2023-04-06T13:19:20;15.40;68.90
42261;DHT22;27926;48.062;7.474;2023-04-06T13:21:45;15.30;68.40
42261;DHT22;27926;48.062;7.474;2023-04-06T13:24:10;15.50;70.30
42261;DHT22;27926;48.062;7.474;2023-04-06T13:26:35;15.70;70.70
42261;DHT22;27926;48.062;7.474;2023-04-06T13:29:00;15.80;71.80
42261;DHT22;27926;48.062;7.474;2023-04-06T13:31:26;15.90;70.60
42261;DHT22;27926;48.062;7.474;2023-04-06T13:33:51;16.00;70.40
42261;DHT22;27926;48.062;7.474;2023-04-06T13:36:15;16.10;71.30
42261;DHT22;27926;48.062;7.474;2023-04-06T13:38:40;16.20;72.20
42261;DHT22;27926;48.062;7.474;2023-04-06T13:41:06;16.30;69.10
42261;DHT22;27926;48.062;7.474;2023-04-06T13:43:30;16.30;69.50
42261;DHT22;27926;48.062;7.474;2023-04-06T13:45:55;16.20;67.60
42261;DHT22;27926;48.062;7.474;2023-04-06T13:48:22;16.20;69.10
42261;DHT22;27926;48.062;7.474;2023-04-06T13:50:46;16.20;68.60
42261;DHT22;27926;48.062;7.474;2023-04-06T13:53:12;16.00;67.70
42261;DHT22;27926;48.062;7.474;2023-04-06T13:55:36;15.90;69.10
42261;DHT22;27926;48.062;7.474;2023-04-06T13:58:01;15.80;66.90
42261;DHT22;27926;48.062;7.474;2023-04-06T14:00:26;15.80;68.80
42261;DHT22;27926;48.062;7.474;2023-04-06T14:02:50;16.00;69.70
42261;DHT22;27926;48.062;7.474;2023-04-06T14:05:15;16.10;69.30
42261;DHT22;27926;48.062;7.474;2023-04-06T14:07:40;16.00;69.70
42261;DHT22;27926;48.062;7.474;2023-04-06T14:10:05;16.00;70.70
42261;DHT22;27926;48.062;7.474;2023-04-06T14:12:30;16.10;70.00
42261;DHT22;27926;48.062;7.474;2023-04-06T14:14:55;16.00;68.60
42261;DHT22;27926;48.062;7.474;2023-04-06T14:17:20;16.00;69.80
42261;DHT22;27926;48.062;7.474;2023-04-06T14:19:45;15.90;70.30
42261;DHT22;27926;48.062;7.474;2023-04-06T14:22:09;15.70;68.60
42261;DHT22;27926;48.062;7.474;2023-04-06T14:24:34;15.50;68.50
42261;DHT22;27926;48.062;7.474;2023-04-06T14:27:00;15.50;69.70
42261;DHT22;27926;48.062;7.474;2023-04-06T14:29:25;15.50;68.10
42261;DHT22;27926;48.062;7.474;2023-04-06T14:31:49;15.50;68.90
42261;DHT22;27926;48.062;7.474;2023-04-06T14:34:14;15.50;68.00
42261;DHT22;27926;48.062;7.474;2023-04-06T14:36:41;15.50;70.00
42261;DHT22;27926;48.062;7.474;2023-04-06T14:39:06;15.30;69.40
42261;DHT22;27926;48.062;7.474;2023-04-06T14:41:31;15.20;69.50
42261;DHT22;27926;48.062;7.474;2023-04-06T14:43:56;15.10;70.10
42261;DHT22;27926;48.062;7.474;2023-04-06T14:46:21;15.30;71.40
42261;DHT22;27926;48.062;7.474;2023-04-06T14:48:46;15.50;71.90
42261;DHT22;27926;48.062;7.474;2023-04-06T14:51:11;15.60;71.60
42261;DHT22;27926;48.062;7.474;2023-04-06T14:53:36;15.60;70.20
42261;DHT22;27926;48.062;7.474;2023-04-06T14:56:00;15.60;72.00
42261;DHT22;27926;48.062;7.474;2023-04-06T14:58:25;15.50;70.20
42261;DHT22;27926;48.062;7.474;2023-04-06T15:00:58;15.40;70.90
42261;DHT22;27926;48.062;7.474;2023-04-06T15:03:27;15.30;71.70
42261;DHT22;27926;48.062;7.474;2023-04-06T15:05:52;15.20;71.40
42261;DHT22;27926;48.062;7.474;2023-04-06T15:08:17;15.20;71.70
42261;DHT22;27926;48.062;7.474;2023-04-06T15:10:44;15.10;72.70
42261;DHT22;27926;48.062;7.474;2023-04-06T15:13:09;14.70;73.60
42261;DHT22;27926;48.062;7.474;2023-04-06T15:15:34;14.70;75.00
42261;DHT22;27926;48.062;7.474;2023-04-06T15:17:58;14.50;74.40
42261;DHT22;27926;48.062;7.474;2023-04-06T15:20:26;14.30;74.20
42261;DHT22;27926;48.062;7.474;2023-04-06T15:22:50;14.30;74.00
42261;DHT22;27926;48.062;7.474;2023-04-06T15:25:15;14.30;74.80
42261;DHT22;27926;48.062;7.474;2023-04-06T15:27:40;14.20;75.50
42261;DHT22;27926;48.062;7.474;2023-04-06T15:30:05;14.00;76.00